Time;durP1;ratioP1;P1;durP2;ratioP2;P2;SDS_P1;SDS_P2;PMS_P1;PMS_P2;Temp;Humidity;BMP_temperature;BMP_pressure;BME280_temperature;BME280_humidity;BME280_pressure;Samples;Min_cycle;Max_cycle;Signal;HPM_P1;HPM_P2
2022/04/06 00:03:28;;;;;;;11.82;5.53;;;;;;;16.71;58.26;96085.44;10392465;28;20049;-22
2022/04/06 00:08:28;;;;;;;10.13;5.60;;;;;;;16.56;55.03;96061.91;10388375;28;20397;-22
2022/04/06 00:13:29;;;;;;;8.43;5.22;;;;;;;16.69;55.61;96079.56;10387304;28;20276;-22
2022/04/06 00:18:30;;;;;;;11.50;5.82;;;;;;;16.69;55.00;96083.78;10386152;28;20037;-22
2022/04/06 00:23:30;;;;;;;10.43;5.57;;;;;;;16.68;54.31;96070.28;10386690;28;20439;-22
2022/04/06 00:28:31;;;;;;;9.35;5.47;;;;;;;16.69;54.46;96073.69;10388622;28;20504;-24
2022/04/06 00:33:31;;;;;;;7.53;4.95;;;;;;;16.69;54.28;96071.97;10386217;28;20021;-22
2022/04/06 00:38:32;;;;;;;8.63;5.83;;;;;;;16.69;53.97;96069.44;10391146;28;20038;-22
2022/04/06 00:43:32;;;;;;;5.73;4.50;;;;;;;16.67;54.43;96067.75;10396945;28;20091;-23
2022/04/06 00:48:33;;;;;;;7.77;5.13;;;;;;;16.68;53.83;96065.25;10381972;28;20030;-22
2022/04/06 00:53:33;;;;;;;8.05;5.10;;;;;;;16.67;54.41;96060.19;10391022;28;20033;-22
2022/04/06 00:58:33;;;;;;;8.98;5.38;;;;;;;16.68;54.52;96050.06;10396034;28;20033;-23
2022/04/06 01:03:34;;;;;;;7.83;5.17;;;;;;;16.67;54.17;96040.81;10389149;28;20036;-24
2022/04/06 01:08:34;;;;;;;8.60;5.60;;;;;;;16.67;57.89;96053.47;10394973;28;20292;-22
2022/04/06 01:13:35;;;;;;;7.67;5.10;;;;;;;16.71;57.88;96044.19;10393738;28;20071;-22
2022/04/06 01:18:36;;;;;;;7.95;5.03;;;;;;;16.68;57.72;96039.97;10392209;28;20294;-23
2022/04/06 01:23:36;;;;;;;8.07;4.93;;;;;;;16.60;55.72;96029.06;10395454;28;20053;-24
2022/04/06 01:28:38;;;;;;;6.23;4.10;;;;;;;16.67;55.53;96034.06;10395627;28;21094;-22
2022/04/06 01:33:38;;;;;;;6.18;4.20;;;;;;;16.66;54.77;96023.97;10398781;28;20049;-22
2022/04/06 01:38:39;;;;;;;7.03;4.43;;;;;;;16.59;55.62;96012.22;10400180;28;20056;-22
2022/04/06 01:43:39;;;;;;;7.30;4.77;;;;;;;16.66;55.06;96023.97;10395053;28;20029;-22
2022/04/06 01:52:12;;;;;;;6.60;4.60;;;;;;;16.64;54.26;96020.63;10394029;28;20026;-22
2022/04/06 01:54:00;;;;;;;6.45;4.40;;;;;;;16.63;56.55;96013.03;10397162;28;20037;-22
2022/04/06 01:59:00;;;;;;;6.03;4.20;;;;;;;16.58;55.35;96008.00;10391484;28;20036;-22
2022/04/06 02:04:00;;;;;;;7.23;4.87;;;;;;;16.63;56.01;96018.91;10397641;28;20305;-22
2022/04/06 02:09:01;;;;;;;7.00;4.63;;;;;;;16.60;55.57;96013.88;10394513;28;20281;-22
2022/04/06 02:14:04;;;;;;;7.25;4.50;;;;;;;16.63;55.87;96005.47;10391396;28;20612;-22
2022/04/06 02:19:05;;;;;;;5.95;4.28;;;;;;;16.66;57.37;96000.38;10390037;28;20482;-22
2022/04/06 02:24:05;;;;;;;7.45;4.45;;;;;;;16.65;58.39;95989.44;10393994;28;20048;-23
2022/04/06 02:29:05;;;;;;;7.72;4.60;;;;;;;16.65;57.61;95991.97;10392392;28;20033;-23
2022/04/06 02:34:06;;;;;;;5.60;4.07;;;;;;;16.61;57.28;95987.78;10396772;28;20044;-23
2022/04/06 02:39:06;;;;;;;5.60;3.70;;;;;;;16.60;57.00;95983.56;10388038;28;20336;-22
2022/04/06 02:44:06;;;;;;;5.53;3.80;;;;;;;16.60;56.62;95981.03;10392666;28;20034;-23
2022/04/06 02:49:07;;;;;;;6.47;4.20;;;;;;;16.60;56.71;95983.56;10392812;28;20112;-22
2022/04/06 02:54:08;;;;;;;6.80;4.60;;;;;;;16.55;55.70;95977.69;10395693;28;20042;-22
2022/04/06 02:59:08;;;;;;;5.80;4.23;;;;;;;16.59;56.56;95970.94;10393831;28;20553;-23
2022/04/06 03:04:09;;;;;;;6.90;3.92;;;;;;;16.60;56.42;95973.47;10392651;28;20363;-22
2022/04/06 03:09:09;;;;;;;4.40;3.40;;;;;;;16.59;55.17;95966.72;10391769;28;20413;-22
2022/04/06 03:14:09;;;;;;;6.85;4.32;;;;;;;16.58;57.18;95969.25;10387521;28;20342;-23
2022/04/06 03:19:10;;;;;;;5.07;3.77;;;;;;;16.57;55.51;95962.53;10391123;28;20038;-24
2022/04/06 03:24:10;;;;;;;5.93;3.53;;;;;;;16.57;57.13;95948.22;10391394;28;20288;-23
2022/04/06 03:29:11;;;;;;;5.57;3.67;;;;;;;16.59;55.84;95948.19;10389834;28;20025;-23
2022/04/06 03:34:11;;;;;;;5.73;3.83;;;;;;;16.62;58.46;95950.72;10389342;28;20112;-23
2022/04/06 03:39:11;;;;;;;7.57;4.23;;;;;;;16.64;57.62;95947.34;10391234;28;20034;-22
2022/04/06 03:44:12;;;;;;;8.20;4.60;;;;;;;16.63;55.53;95943.09;10390064;28;20799;-23
2022/04/06 03:49:12;;;;;;;6.17;3.87;;;;;;;16.62;54.77;95941.44;10383591;28;20280;-23
2022/04/06 03:54:13;;;;;;;6.75;3.88;;;;;;;16.64;53.78;95929.66;10385022;28;20055;-23
2022/04/06 03:59:13;;;;;;;5.72;3.38;;;;;;;16.70;54.06;95927.06;10389145;28;20409;-21
2022/04/06 04:04:13;;;;;;;4.57;3.63;;;;;;;16.72;53.84;95922.88;10392824;28;20096;-22
2022/04/06 04:09:14;;;;;;;4.87;3.63;;;;;;;16.72;53.92;95922.88;10389723;28;20243;-22
2022/04/06 04:14:14;;;;;;;5.67;3.40;;;;;;;16.74;53.95;95916.94;10390779;28;20040;-22
2022/04/06 04:19:16;;;;;;;5.77;3.73;;;;;;;16.75;54.09;95902.63;10384663;28;20095;-22
2022/04/06 04:24:16;;;;;;;5.13;3.45;;;;;;;16.73;53.85;95900.94;10382606;28;20042;-22
2022/04/06 04:29:17;;;;;;;6.57;3.90;;;;;;;16.76;54.29;95906.81;10388191;28;20405;-22
2022/04/06 04:34:18;;;;;;;5.30;3.78;;;;;;;16.77;53.79;95900.91;10387306;28;20288;-22
2022/04/06 04:39:18;;;;;;;5.80;3.50;;;;;;;16.77;53.85;95900.09;10387600;28;20026;-23
2022/04/06 04:44:19;;;;;;;6.35;3.70;;;;;;;16.78;54.26;95895.84;10396942;28;20042;-22
2022/04/06 04:49:19;;;;;;;9.32;3.53;;;;;;;16.78;55.82;95900.91;10399500;28;20029;-25
2022/04/06 04:54:24;;;;;;;6.17;3.57;;;;;;;16.82;54.55;95900.03;10400443;28;20034;-23
2022/04/06 04:59:25;;;;;;;4.70;3.30;;;;;;;16.75;53.99;95878.16;10398045;28;20652;-24
2022/04/06 05:04:25;;;;;;;7.28;3.72;;;;;;;16.81;54.18;95890.78;10402890;28;20029;-22
2022/04/06 05:09:26;;;;;;;4.63;3.23;;;;;;;16.82;53.76;95884.03;10395447;28;20393;-22
2022/04/06 05:14:27;;;;;;;5.80;3.20;;;;;;;16.74;53.71;95870.63;10389852;28;20543;-22
2022/04/06 05:19:27;;;;;;;5.65;3.63;;;;;;;16.80;53.39;95888.25;10397988;28;20802;-24
2022/04/06 05:24:28;;;;;;;3.95;2.92;;;;;;;16.79;53.81;95879.00;10396575;28;20353;-22
2022/04/06 05:29:28;;;;;;;2.97;2.30;;;;;;;16.75;54.11;95877.34;10397926;28;20525;-22
2022/04/06 05:34:29;;;;;;;6.47;3.03;;;;;;;16.68;53.61;95860.53;10397991;28;20387;-23
2022/04/06 05:39:30;;;;;;;8.75;3.00;;;;;;;16.75;54.42;95884.94;10394301;28;20540;-22
2022/04/06 05:44:30;;;;;;;6.80;3.35;;;;;;;16.67;53.95;95873.19;10390611;28;20060;-22
2022/04/06 05:49:31;;;;;;;4.93;2.47;;;;;;;16.73;53.84;95887.47;10394151;28;20441;-23
2022/04/06 05:54:31;;;;;;;7.70;2.43;;;;;;;16.73;57.00;95889.16;10389380;28;20473;-25
2022/04/06 05:59:31;;;;;;;7.57;3.13;;;;;;;16.72;57.15;95884.09;10394035;28;20489;-23
2022/04/06 06:04:33;;;;;;;6.68;2.92;;;;;;;16.71;54.50;95888.31;10399060;28;20112;-22
2022/04/06 06:09:34;;;;;;;4.65;2.90;;;;;;;16.71;54.18;95892.53;10394945;28;20536;-22
2022/04/06 06:14:35;;;;;;;7.05;2.53;;;;;;;16.69;53.96;95891.72;10387468;28;20112;-23
2022/04/06 06:19:35;;;;;;;3.88;3.00;;;;;;;16.69;54.11;95897.59;10395979;28;20190;-22
2022/04/06 06:24:36;;;;;;;3.80;2.47;;;;;;;16.68;54.37;95893.41;10395635;28;20033;-23
2022/04/06 06:29:36;;;;;;;4.43;2.87;;;;;;;16.69;54.14;95896.78;10392145;28;20025;-22
2022/04/06 06:34:36;;;;;;;5.03;3.03;;;;;;;16.69;54.19;95897.59;10389825;28;20033;-22
2022/04/06 06:39:37;;;;;;;4.10;2.33;;;;;;;16.67;53.98;95897.59;10388365;28;20076;-22
2022/04/06 06:44:38;;;;;;;4.88;2.90;;;;;;;16.67;54.06;95909.41;10392674;28;20038;-22
2022/04/06 06:49:45;;;;;;;4.90;3.03;;;;;;;16.64;53.92;95891.75;10392068;28;20038;-22
2022/04/06 06:54:45;;;;;;;5.18;3.17;;;;;;;16.66;54.41;95896.78;10391644;28;20301;-23
2022/04/06 06:59:46;;;;;;;3.47;2.40;;;;;;;16.64;53.65;95889.22;10393630;28;20179;-21
2022/04/06 07:04:47;;;;;;;3.40;2.30;;;;;;;16.64;56.33;95884.16;10397174;28;20280;-22
2022/04/06 07:09:47;;;;;;;6.00;2.65;;;;;;;16.67;55.93;95886.66;10390589;28;20296;-22
2022/04/06 07:14:47;;;;;;;2.63;2.05;;;;;;;16.66;54.54;95879.94;10386884;28;20171;-23
2022/04/06 07:19:48;;;;;;;3.90;2.50;;;;;;;16.65;54.96;95874.88;10387159;28;20038;-21
2022/04/06 07:24:48;;;;;;;3.40;2.33;;;;;;;16.63;55.05;95872.34;10394190;28;20044;-22
2022/04/06 07:29:48;;;;;;;3.97;2.90;;;;;;;16.63;54.29;95859.72;10391930;28;20021;-22
2022/04/06 07:34:49;;;;;;;3.57;2.80;;;;;;;16.64;54.84;95863.94;10395886;28;20029;-23
2022/04/06 07:39:49;;;;;;;2.93;2.10;;;;;;;16.54;54.69;95847.16;10389091;28;20030;-23
2022/04/06 07:44:50;;;;;;;6.18;2.70;;;;;;;16.62;54.00;95847.94;10389407;28;20116;-23
2022/04/06 07:49:50;;;;;;;4.33;3.03;;;;;;;16.63;54.20;95852.13;10392713;28;20052;-22
2022/04/06 07:54:51;;;;;;;3.93;2.70;;;;;;;16.62;55.17;95855.50;10393700;28;20780;-23
2022/04/06 07:59:52;;;;;;;4.25;2.40;;;;;;;16.65;54.71;95852.13;10392957;28;20293;-22
2022/04/06 08:04:53;;;;;;;3.25;2.20;;;;;;;16.64;54.35;95847.94;10390620;28;20029;-22
2022/04/06 08:09:54;;;;;;;3.28;2.20;;;;;;;16.63;54.58;95847.09;10389146;28;20514;-23
2022/04/06 08:14:54;;;;;;;4.67;2.00;;;;;;;16.63;56.41;95846.25;10384097;28;20044;-22
2022/04/06 08:19:54;;;;;;;3.63;2.50;;;;;;;16.65;56.50;95847.94;10393648;28;20030;-23
2022/04/06 08:24:55;;;;;;;3.30;2.43;;;;;;;16.63;54.73;95843.75;10388522;28;20527;-22
2022/04/06 08:29:55;;;;;;;2.90;2.30;;;;;;;16.61;55.22;95843.75;10387786;28;20281;-22
2022/04/06 08:34:55;;;;;;;3.80;2.38;;;;;;;16.62;54.54;95844.59;10394684;28;20026;-23
2022/04/06 08:39:56;;;;;;;4.70;2.80;;;;;;;16.53;54.53;95840.41;10387024;28;20380;-22
2022/04/06 08:44:57;;;;;;;5.03;2.47;;;;;;;16.61;54.35;95841.22;10390594;28;20049;-24
2022/04/06 08:49:59;;;;;;;3.60;1.98;;;;;;;16.61;54.52;95847.97;10391643;28;20108;-23
2022/04/06 08:54:59;;;;;;;2.45;1.88;;;;;;;16.60;54.59;95847.13;10392230;28;20486;-23
2022/04/06 09:00:00;;;;;;;2.97;2.35;;;;;;;16.58;54.32;95841.25;10390727;28;20112;-23
2022/04/06 09:05:03;;;;;;;2.97;2.10;;;;;;;16.59;54.98;95839.53;10389367;28;20036;-22
2022/04/06 09:10:03;;;;;;;4.05;2.22;;;;;;;16.60;54.12;95842.06;10387669;28;20037;-22
2022/04/06 09:15:09;;;;;;;2.90;2.10;;;;;;;16.59;54.14;95839.53;10383340;28;20409;-22
2022/04/06 09:20:10;;;;;;;2.47;2.10;;;;;;;16.61;53.72;95835.34;10387147;28;20041;-22
2022/04/06 09:25:11;;;;;;;4.47;2.30;;;;;;;16.60;56.43;95828.59;10392490;28;20033;-22
2022/04/06 09:30:12;;;;;;;2.70;2.20;;;;;;;16.64;56.37;95832.78;10390551;28;20022;-22
2022/04/06 09:35:26;;;;;;;2.42;1.85;;;;;;;16.61;55.20;95832.81;10402460;28;20033;-23
2022/04/06 09:40:28;;;;;;;2.10;1.70;;;;;;;16.60;54.77;95824.38;10389196;28;20026;-22
2022/04/06 09:50:56;;;;;;;2.80;1.90;;;;;;;16.58;53.93;95821.03;10396193;28;20508;-23
2022/04/06 09:55:57;;;;;;;2.42;1.95;;;;;;;16.56;53.93;95814.31;10397019;28;20091;-22
2022/04/06 10:00:58;;;;;;;2.92;2.28;;;;;;;16.58;54.22;95815.97;10387975;28;20036;-24
2022/04/06 10:05:59;;;;;;;4.10;1.93;;;;;;;16.56;54.46;95805.06;10395488;28;20039;-24
2022/04/06 10:10:59;;;;;;;3.67;2.10;;;;;;;16.59;53.85;95794.91;10397359;28;20280;-22
2022/04/06 10:16:00;;;;;;;2.50;1.83;;;;;;;16.62;53.50;95777.19;10388551;28;20037;-21
2022/04/06 10:21:10;;;;;;;2.28;1.90;;;;;;;16.66;53.77;95776.31;10391263;28;20171;-24
2022/04/06 10:26:22;;;;;;;2.90;2.10;;;;;;;16.67;53.67;95769.56;10395071;28;20057;-23
2022/04/06 10:31:29;;;;;;;3.00;1.90;;;;;;;16.71;53.37;95761.13;10400214;28;20030;-24
2022/04/06 10:36:30;;;;;;;2.90;1.80;;;;;;;16.71;54.88;95746.78;10393349;28;20791;-22
2022/04/06 10:41:31;;;;;;;3.22;2.00;;;;;;;16.68;55.90;95739.25;10392543;28;20045;-22
2022/04/06 10:46:40;;;;;;;2.00;1.73;;;;;;;16.67;54.24;95732.50;10381530;28;20030;-23
2022/04/06 10:51:56;;;;;;;2.80;1.92;;;;;;;16.72;53.47;95723.22;10397916;28;20026;-22
2022/04/06 10:57:00;;;;;;;2.67;1.75;;;;;;;16.69;53.44;95720.69;10391734;28;20044;-23
2022/04/06 11:02:20;;;;;;;2.30;1.73;;;;;;;16.70;53.46;95717.31;10389178;28;20030;-23
2022/04/06 11:13:02;;;;;;;2.33;1.88;;;;;;;16.69;53.97;95710.59;10393780;28;20571;-23
2022/04/06 11:18:02;;;;;;;2.60;1.77;;;;;;;16.72;53.81;95707.19;10394397;28;20048;-22
2022/04/06 11:23:06;;;;;;;2.35;1.65;;;;;;;16.70;54.06;95689.50;10385886;28;20535;-23
2022/04/06 11:28:07;;;;;;;3.75;1.60;;;;;;;16.70;53.79;95681.13;10394109;28;20033;-23
2022/04/06 11:33:08;;;;;;;4.80;2.20;;;;;;;16.69;54.19;95677.75;10388532;28;20486;-23
2022/04/06 11:38:08;;;;;;;5.15;2.28;;;;;;;16.69;53.81;95684.50;10384985;28;20112;-23
2022/04/06 11:43:09;;;;;;;4.88;2.20;;;;;;;16.71;53.77;95667.63;10395089;28;20569;-22
2022/04/06 11:48:12;;;;;;;20.23;7.10;;;;;;;16.69;57.75;95664.28;10391313;28;20413;-22
2022/04/06 11:53:18;;;;;;;17.88;7.10;;;;;;;16.67;57.84;95651.66;10393132;28;20284;-24
2022/04/06 11:58:36;;;;;;;8.95;3.28;;;;;;;16.71;54.42;95645.69;10385155;28;20037;-24
2022/04/06 12:03:39;;;;;;;7.07;2.97;;;;;;;16.68;54.43;95633.09;10392106;28;20047;-22
2022/04/06 12:08:41;;;;;;;6.05;2.70;;;;;;;16.65;54.36;95638.22;10388708;28;20036;-22
2022/04/06 12:13:43;;;;;;;3.67;2.60;;;;;;;16.60;53.96;95622.25;10387728;28;20037;-23
2022/04/06 12:18:44;;;;;;;6.45;2.72;;;;;;;16.64;54.03;95631.47;10386675;28;20100;-21
2022/04/06 12:23:45;;;;;;;5.32;2.55;;;;;;;16.64;54.28;95620.53;10387779;28;20037;-22
2022/04/06 12:28:58;;;;;;;4.43;2.50;;;;;;;16.65;53.96;95623.03;10388103;28;20432;-22
2022/04/06 12:33:59;;;;;;;4.78;2.55;;;;;;;16.64;54.13;95616.31;10391777;28;20037;-22
2022/04/06 12:39:13;;;;;;;8.18;2.75;;;;;;;16.61;54.31;95618.84;10385658;28;20037;-22
2022/04/06 12:44:14;;;;;;;7.88;2.53;;;;;;;16.61;54.02;95618.84;10391667;28;20026;-22
2022/04/06 12:49:26;;;;;;;7.70;2.65;;;;;;;16.59;54.60;95614.66;10388734;28;20030;-22
2022/04/06 12:54:28;;;;;;;5.18;2.92;;;;;;;16.59;54.73;95613.00;10392170;28;20045;-22
2022/04/06 12:59:45;;;;;;;18.08;4.32;;;;;;;16.64;57.44;95605.38;10389230;28;20068;-24
2022/04/06 13:04:46;;;;;;;17.27;4.00;;;;;;;16.71;56.93;95612.84;10397835;28;20033;-22
2022/04/06 13:09:57;;;;;;;17.48;4.15;;;;;;;16.61;56.79;95611.28;10396971;28;20452;-23
2022/04/06 13:15:00;;;;;;;12.18;2.85;;;;;;;16.56;56.81;95605.47;10391633;28;20106;-23
2022/04/06 13:20:00;;;;;;;6.65;2.40;;;;;;;16.54;56.38;95606.31;10396992;28;20062;-22
2022/04/06 13:25:02;;;;;;;9.00;2.78;;;;;;;16.55;55.69;95600.41;10395375;28;20076;-22
2022/04/06 13:30:04;;;;;;;10.88;3.25;;;;;;;16.54;55.61;95593.69;10395463;28;20036;-22
2022/04/06 13:35:05;;;;;;;6.93;2.05;;;;;;;16.56;54.35;95591.97;10401447;28;20099;-22
2022/04/06 13:40:06;;;;;;;5.07;2.42;;;;;;;16.61;54.30;95580.97;10391885;28;20029;-23
2022/04/06 13:45:07;;;;;;;7.20;2.38;;;;;;;16.64;53.86;95586.00;10394092;28;20029;-22
2022/04/06 13:50:08;;;;;;;7.05;2.95;;;;;;;16.63;53.91;95574.19;10399112;28;20103;-23
2022/04/06 13:55:16;;;;;;;3.85;2.40;;;;;;;16.64;54.09;95568.31;10397382;28;20064;-22
2022/04/06 14:00:20;;;;;;;5.78;2.55;;;;;;;16.66;53.82;95566.59;10386716;28;20042;-22
2022/04/06 14:05:20;;;;;;;3.58;1.90;;;;;;;16.66;54.14;95556.50;10396178;28;20034;-22
2022/04/06 14:10:20;;;;;;;9.87;2.80;;;;;;;16.64;56.98;95565.78;10394773;28;20079;-22
2022/04/06 14:15:22;;;;;;;7.77;2.57;;;;;;;16.67;56.47;95554.78;10387246;28;20042;-22
2022/04/06 14:20:23;;;;;;;7.38;2.95;;;;;;;16.64;55.13;95548.09;10394572;28;20344;-23
2022/04/06 14:25:24;;;;;;;3.95;2.30;;;;;;;16.65;54.60;95551.44;10395885;28;20080;-23
2022/04/06 14:30:24;;;;;;;5.38;1.90;;;;;;;16.64;53.91;95559.88;10390016;28;20034;-22
2022/04/06 14:35:25;;;;;;;4.07;2.20;;;;;;;16.65;54.02;95546.38;10401646;28;20460;-22
2022/04/06 14:40:25;;;;;;;5.95;1.83;;;;;;;16.63;54.33;95548.94;10386801;28;20056;-23
2022/04/06 14:45:26;;;;;;;3.63;1.67;;;;;;;16.66;54.21;95546.38;10392636;28;20050;-23
2022/04/06 14:50:26;;;;;;;4.17;1.93;;;;;;;16.64;53.80;95538.00;10399535;28;20461;-24
2022/04/06 14:55:27;;;;;;;3.23;1.90;;;;;;;16.65;54.18;95547.25;10394637;28;20288;-22
2022/04/06 15:00:28;;;;;;;6.27;2.20;;;;;;;16.63;53.86;95538.81;10391224;28;20030;-22
2022/04/06 15:05:29;;;;;;;5.20;2.70;;;;;;;16.62;53.81;95537.16;10371889;28;20332;-23
2022/04/06 15:10:30;;;;;;;2.63;1.58;;;;;;;16.65;54.19;95542.19;10393055;28;20032;-24
2022/04/06 15:15:30;;;;;;;5.37;1.70;;;;;;;16.65;56.29;95546.38;10390076;28;20034;-22
2022/04/06 15:20:33;;;;;;;6.05;1.90;;;;;;;16.67;57.07;95545.53;10390105;28;20034;-22
2022/04/06 15:25:34;;;;;;;3.58;1.75;;;;;;;16.68;56.64;95547.19;10395095;28;20064;-23
2022/04/06 15:30:34;;;;;;;4.57;1.60;;;;;;;16.63;56.29;95541.34;10385720;28;20379;-23
2022/04/06 15:40:55;;;;;;;4.05;1.73;;;;;;;16.61;54.61;95540.53;10387223;28;20513;-22
2022/04/06 15:45:57;;;;;;;2.15;1.67;;;;;;;16.63;54.20;95543.88;10392992;28;20582;-24
2022/04/06 15:50:57;;;;;;;5.47;1.80;;;;;;;16.60;54.39;95543.91;10394730;28;20045;-22
2022/04/06 15:55:58;;;;;;;3.37;1.80;;;;;;;16.63;54.75;95548.09;10390204;28;20053;-22
2022/04/06 16:01:00;;;;;;;3.05;1.50;;;;;;;16.59;56.40;95554.88;10386142;28;20038;-22
2022/04/06 16:06:01;;;;;;;3.08;1.63;;;;;;;16.62;54.98;95538.84;10384096;28;20038;-23
2022/04/06 16:11:01;;;;;;;6.35;1.58;;;;;;;16.64;54.33;95534.63;10393840;28;20044;-23
2022/04/06 16:16:02;;;;;;;4.80;1.93;;;;;;;16.56;54.80;95532.19;10381894;28;20030;-22
2022/04/06 16:21:02;;;;;;;2.47;1.30;;;;;;;16.62;54.31;95536.34;10390609;28;20065;-22
2022/04/06 16:26:03;;;;;;;5.73;1.87;;;;;;;16.67;56.56;95540.47;10382343;28;20412;-22
2022/04/06 16:31:06;;;;;;;10.90;2.43;;;;;;;16.74;57.47;95542.06;10391052;28;20544;-23
2022/04/06 16:36:06;;;;;;;5.22;2.22;;;;;;;16.77;54.58;95536.97;10398815;28;20747;-22
2022/04/06 16:41:07;;;;;;;15.20;3.57;;;;;;;16.74;55.77;95531.97;10395515;28;20091;-22
2022/04/06 16:46:08;;;;;;;6.50;2.58;;;;;;;16.75;54.57;95539.50;10399868;28;20459;-24
2022/04/06 16:56:28;;;;;;;6.13;2.22;;;;;;;16.72;54.50;95526.09;10394802;28;20559;-21
2022/04/06 17:01:28;;;;;;;6.15;2.30;;;;;;;16.77;54.23;95531.09;10393053;28;20056;-24
2022/04/06 17:06:30;;;;;;;5.78;2.25;;;;;;;16.76;54.14;95530.25;10383605;28;20444;-22
2022/04/06 17:11:30;;;;;;;5.10;2.55;;;;;;;16.74;53.70;95526.91;10399992;28;20555;-23
2022/04/06 17:16:31;;;;;;;3.75;2.22;;;;;;;16.75;54.05;95529.41;10379628;28;20091;-22
2022/04/06 17:21:32;;;;;;;4.57;1.88;;;;;;;16.75;53.96;95529.41;10389232;28;20049;-24
2022/04/06 17:26:34;;;;;;;3.63;1.90;;;;;;;16.75;53.76;95513.41;10398379;28;20116;-22
2022/04/06 17:31:34;;;;;;;3.75;2.00;;;;;;;16.71;54.73;95516.81;10395639;28;20033;-23
2022/04/06 17:36:35;;;;;;;6.77;3.20;;;;;;;16.77;58.07;95505.81;10396437;28;20034;-23
2022/04/06 17:41:36;;;;;;;7.20;3.00;;;;;;;16.77;56.72;95494.00;10395063;28;20151;-22
2022/04/06 17:46:37;;;;;;;7.97;1.95;;;;;;;16.76;54.58;95499.94;10387034;28;20482;-24
2022/04/06 17:51:41;;;;;;;3.80;1.60;;;;;;;16.72;54.11;95488.19;10394885;28;20025;-22
2022/04/06 17:56:42;;;;;;;5.20;1.70;;;;;;;16.71;53.70;95506.72;10399877;28;20082;-23
2022/04/06 18:01:42;;;;;;;9.27;2.75;;;;;;;16.62;57.22;95496.72;10389063;28;20044;-22
2022/04/06 18:06:43;;;;;;;5.60;2.33;;;;;;;16.69;54.28;95493.28;10386703;28;20041;-23
2022/04/06 18:17:02;;;;;;;3.53;1.85;;;;;;;16.82;55.10;95479.63;10392724;28;20056;-22
2022/04/06 18:22:03;;;;;;;5.88;1.67;;;;;;;16.76;54.24;95479.72;10380838;28;20037;-24
2022/04/06 18:27:04;;;;;;;4.97;1.48;;;;;;;16.74;53.93;95476.38;10384433;28;20038;-23
2022/04/06 18:32:05;;;;;;;6.53;2.10;;;;;;;16.74;57.35;95479.72;10395106;28;20049;-23
2022/04/06 18:37:06;;;;;;;7.50;2.33;;;;;;;16.69;59.56;95462.94;10386908;28;20037;-24
2022/04/06 18:42:07;;;;;;;5.43;1.77;;;;;;;16.77;57.93;95483.09;10372003;28;20033;-22
2022/04/06 18:47:07;;;;;;;3.35;1.52;;;;;;;16.73;54.84;95484.81;10383704;28;20497;-21
2022/04/06 18:52:08;;;;;;;7.57;2.40;;;;;;;16.67;56.55;95487.41;10372309;28;20037;-22
2022/04/06 18:57:08;;;;;;;4.55;1.60;;;;;;;16.70;54.03;95484.84;10369864;28;20025;-22
2022/04/06 19:02:08;;;;;;;3.70;1.80;;;;;;;16.70;53.72;95484.84;10384948;28;20034;-23
2022/04/06 19:07:09;;;;;;;3.47;1.67;;;;;;;16.72;54.10;95492.41;10388723;28;20284;-22
2022/04/06 19:12:10;;;;;;;3.63;1.30;;;;;;;16.71;54.06;95495.78;10376127;28;20037;-23
2022/04/06 19:17:10;;;;;;;4.15;2.05;;;;;;;16.71;54.11;95491.56;10391223;28;20033;-22
2022/04/06 19:22:11;;;;;;;6.27;1.90;;;;;;;16.70;54.13;95494.94;10386860;28;20030;-22
2022/04/06 19:27:12;;;;;;;5.07;1.92;;;;;;;16.70;54.13;95497.47;10391066;28;20124;-22
2022/04/06 19:32:12;;;;;;;3.67;1.67;;;;;;;16.59;54.88;95489.19;10373290;28;20402;-22
2022/04/06 19:37:14;;;;;;;5.47;1.93;;;;;;;16.70;57.89;95489.88;10389165;28;20030;-22
2022/04/06 19:42:15;;;;;;;5.97;2.78;;;;;;;16.74;58.95;95496.59;10381078;28;20806;-24
2022/04/06 19:47:15;;;;;;;4.37;1.77;;;;;;;16.61;55.99;95482.41;10384021;28;20033;-23
2022/04/06 19:52:15;;;;;;;4.27;1.40;;;;;;;16.73;54.69;95495.75;10388470;28;20040;-24
2022/04/06 19:57:16;;;;;;;5.03;1.40;;;;;;;16.73;54.28;95499.97;10389675;28;20038;-22
2022/04/06 20:02:17;;;;;;;4.33;1.80;;;;;;;16.74;54.10;95504.16;10385217;28;20027;-23
2022/04/06 20:07:17;;;;;;;2.70;1.38;;;;;;;16.76;54.14;95512.56;10386595;28;20046;-22
2022/04/06 20:12:17;;;;;;;3.25;1.58;;;;;;;16.76;54.26;95507.50;10389067;28;20041;-24
2022/04/06 20:17:18;;;;;;;3.93;1.63;;;;;;;16.75;54.10;95514.25;10376662;28;20164;-23
2022/04/06 20:22:18;;;;;;;1.90;1.35;;;;;;;16.75;54.17;95510.88;10384125;28;20376;-23
2022/04/06 20:27:19;;;;;;;2.00;1.27;;;;;;;16.75;54.14;95503.31;10391829;28;20045;-22
2022/04/06 20:32:19;;;;;;;4.83;1.80;;;;;;;16.75;53.97;95499.06;10382078;28;20806;-21
2022/04/06 20:37:19;;;;;;;3.03;1.47;;;;;;;16.73;53.80;95484.81;10391980;28;20029;-23
2022/04/06 20:42:20;;;;;;;3.07;1.47;;;;;;;16.71;53.90;95490.72;10391402;28;20032;-23
2022/04/06 20:47:21;;;;;;;6.95;1.63;;;;;;;16.73;58.26;95485.63;10394884;28;20025;-23
2022/04/06 20:52:21;;;;;;;6.13;1.80;;;;;;;16.77;59.12;95481.38;10384513;28;20040;-23
2022/04/06 20:57:21;;;;;;;1.88;1.20;;;;;;;16.77;55.33;95478.84;10391304;28;20293;-23
2022/04/06 21:02:22;;;;;;;3.90;1.37;;;;;;;16.78;54.44;95478.84;10394468;28;20026;-23
2022/04/06 21:07:25;;;;;;;1.83;1.20;;;;;;;16.74;54.70;95473.84;10393878;28;20288;-23
2022/04/06 21:12:26;;;;;;;2.90;1.58;;;;;;;16.78;54.11;95472.94;10384081;28;20132;-22
2022/04/06 21:17:26;;;;;;;3.03;1.43;;;;;;;16.75;54.31;95462.88;10389822;28;20037;-22
2022/04/06 21:22:26;;;;;;;2.13;1.17;;;;;;;16.73;54.43;95458.69;10390212;28;20512;-23
2022/04/06 21:27:27;;;;;;;3.30;1.80;;;;;;;16.71;54.18;95457.88;10392632;28;20390;-23
2022/04/06 21:32:27;;;;;;;3.30;1.60;;;;;;;16.69;54.24;95455.38;10398995;28;20409;-21
2022/04/06 21:37:27;;;;;;;2.87;1.30;;;;;;;16.68;54.52;95451.19;10391361;28;20055;-22
2022/04/06 21:42:28;;;;;;;2.30;1.37;;;;;;;16.69;54.30;95452.03;10396100;28;20291;-22
2022/04/06 21:47:28;;;;;;;1.73;1.30;;;;;;;16.67;54.21;95457.09;10394413;28;20030;-22
2022/04/06 21:52:28;;;;;;;3.07;1.27;;;;;;;16.69;54.00;95460.41;10399932;28;20079;-22
2022/04/06 21:57:29;;;;;;;5.47;2.03;;;;;;;16.72;61.69;95455.34;10399079;28;20029;-23
2022/04/06 22:02:29;;;;;;;2.83;1.80;;;;;;;16.76;61.66;95449.38;10399793;28;20907;-23
2022/04/06 22:07:29;;;;;;;6.13;1.70;;;;;;;16.73;59.16;95459.53;10395257;28;20025;-23
2022/04/06 22:12:30;;;;;;;4.10;1.60;;;;;;;16.71;54.93;95450.31;10401553;28;20032;-23
2022/04/06 22:17:30;;;;;;;1.83;1.35;;;;;;;16.72;54.82;95467.97;10381873;28;20026;-22
2022/04/06 22:22:31;;;;;;;2.43;1.37;;;;;;;16.68;55.07;95456.22;10386139;28;20034;-22
2022/04/06 22:27:31;;;;;;;1.85;1.10;;;;;;;16.69;54.78;95465.47;10387228;28;20026;-22
2022/04/06 22:32:32;;;;;;;2.30;1.23;;;;;;;16.67;54.79;95452.84;10403531;28;20029;-22
2022/04/06 22:37:32;;;;;;;3.73;1.20;;;;;;;16.67;54.78;95464.66;10388138;28;20029;-22
2022/04/06 22:42:32;;;;;;;2.10;1.10;;;;;;;16.69;54.46;95478.09;10386634;28;20029;-22
2022/04/06 22:47:33;;;;;;;4.38;1.20;;;;;;;16.67;54.48;95467.19;10388320;28;20084;-22
2022/04/06 22:52:34;;;;;;;2.60;1.00;;;;;;;16.63;54.25;95475.66;10390769;28;20029;-22
2022/04/06 22:57:34;;;;;;;2.92;1.20;;;;;;;16.63;54.68;95462.19;10392855;28;20291;-22
2022/04/06 23:02:35;;;;;;;3.25;1.27;;;;;;;16.64;54.47;95459.66;10390252;28;20048;-22
2022/04/06 23:07:36;;;;;;;5.95;1.55;;;;;;;16.70;61.46;95451.97;10390204;28;20030;-23
2022/04/06 23:12:36;;;;;;;3.72;1.33;;;;;;;16.73;61.08;95466.28;10395920;28;20037;-22
2022/04/06 23:17:39;;;;;;;2.40;1.30;;;;;;;16.71;56.88;95465.47;10381513;28;20559;-22
2022/04/06 23:22:39;;;;;;;2.08;1.10;;;;;;;16.66;55.07;95457.94;10391754;28;20799;-22
2022/04/06 23:27:40;;;;;;;1.53;1.00;;;;;;;16.69;54.62;95478.09;10400902;28;20063;-21
2022/04/06 23:32:41;;;;;;;1.23;1.00;;;;;;;16.68;54.53;95471.38;10395456;28;20035;-21
2022/04/06 23:37:42;;;;;;;5.45;1.08;;;;;;;16.67;54.52;95475.59;10392071;28;20025;-23
2022/04/06 23:42:42;;;;;;;1.83;1.02;;;;;;;16.67;54.61;95452.84;10389921;28;20307;-21
2022/04/06 23:47:43;;;;;;;4.03;2.33;;;;;;;16.67;54.26;95457.09;10389888;28;20049;-21